Time;durP1;ratioP1;P1;durP2;ratioP2;P2;SDS_P1;SDS_P2;PMS_P1;PMS_P2;Temp;Humidity;BMP_temperature;BMP_pressure;BME280_temperature;BME280_humidity;BME280_pressure;Samples;Min_cycle;Max_cycle;Signal;HPM_P1;HPM_P2
2022/03/31 00:00:49;;;;;;;;;23.67;15.67;;;;;23.06;69.69;99742.63;5055077;28;45538;-68
2022/03/31 00:03:15;;;;;;;;;20.00;13.00;;;;;23.04;70.20;99739.16;5056066;28;45443;-68
2022/03/31 00:05:41;;;;;;;;;16.67;11.33;;;;;23.04;69.31;99739.16;5049059;28;47425;-68
2022/03/31 00:08:09;;;;;;;;;21.00;12.67;;;;;23.03;69.35;99740.13;5039330;28;45313;-68
2022/03/31 00:10:37;;;;;;;;;15.33;12.00;;;;;23.04;69.31;99734.63;5028079;28;45345;-68
2022/03/31 00:13:04;;;;;;;;;12.00;9.33;;;;;23.05;69.25;99733.69;5053843;28;45352;-68
2022/03/31 00:15:30;;;;;;;;;14.33;11.67;;;;;23.06;69.18;99737.22;5056610;28;46681;-68
2022/03/31 00:17:56;;;;;;;;;18.33;12.00;;;;;23.05;69.34;99733.69;5056884;28;45496;-68
2022/03/31 00:20:21;;;;;;;;;16.33;10.33;;;;;23.05;68.83;99736.38;5056985;28;45496;-68
2022/03/31 00:22:47;;;;;;;;;15.67;13.00;;;;;23.05;68.97;99736.38;5049387;28;54095;-68
2022/03/31 00:25:13;;;;;;;;;15.67;11.00;;;;;23.05;68.93;99732.81;5050863;28;63803;-67
2022/03/31 00:27:39;;;;;;;;;18.00;10.00;;;;;23.03;68.72;99723.97;5056624;28;45412;-68
2022/03/31 00:30:05;;;;;;;;;18.00;12.00;;;;;23.04;68.79;99731.94;5047638;28;45509;-68
2022/03/31 00:32:32;;;;;;;;;19.33;11.33;;;;;23.05;68.84;99728.28;5055391;28;45460;-68
2022/03/31 00:34:57;;;;;;;;;13.33;11.00;;;;;23.05;68.93;99720.22;5056016;28;45866;-68
2022/03/31 00:37:23;;;;;;;;;12.67;12.00;;;;;23.05;68.75;99724.72;5051610;28;54701;-67
2022/03/31 00:39:48;;;;;;;;;20.33;10.33;;;;;23.05;68.79;99722.03;5049185;28;45941;-68
2022/03/31 00:42:15;;;;;;;;;19.33;10.33;;;;;23.06;68.60;99721.06;5056670;28;45621;-68
2022/03/31 00:44:41;;;;;;;;;7.33;3.33;;;;;23.05;68.32;99713.97;5036832;28;46824;-68
2022/03/31 00:47:08;;;;;;;;;16.00;13.00;;;;;23.06;68.46;99715.69;5056585;28;45733;-68
2022/03/31 00:49:34;;;;;;;;;14.33;11.67;;;;;23.04;68.72;99709.53;5056918;28;45320;-68
2022/03/31 00:52:00;;;;;;;;;15.00;11.00;;;;;23.04;68.36;99707.72;5048851;28;45392;-68
2022/03/31 00:54:25;;;;;;;;;15.33;11.67;;;;;23.05;68.28;99720.22;5056791;28;47771;-68
2022/03/31 00:56:51;;;;;;;;;19.67;10.67;;;;;23.03;68.09;99705.97;5038199;28;45415;-68
2022/03/31 00:59:17;;;;;;;;;13.33;10.00;;;;;23.03;68.37;99705.97;5031842;28;45384;-68
2022/03/31 01:01:44;;;;;;;;;15.00;10.33;;;;;22.99;68.02;99699.03;5056855;28;45521;-68
2022/03/31 01:04:10;;;;;;;;;18.33;13.67;;;;;23.03;68.04;99700.59;5054744;28;46588;-68
2022/03/31 01:06:35;;;;;;;;;24.67;13.00;;;;;23.05;68.22;99692.44;5053626;28;48286;-68
2022/03/31 01:09:02;;;;;;;;;11.00;9.67;;;;;23.02;68.23;99696.19;5037942;28;45288;-68
2022/03/31 01:11:29;;;;;;;;;19.33;12.00;;;;;23.04;68.11;99704.16;5050115;28;45455;-68
2022/03/31 01:13:55;;;;;;;;;12.00;10.33;;;;;23.05;67.77;99697.81;5056097;28;45815;-68
2022/03/31 01:16:20;;;;;;;;;17.67;11.67;;;;;23.06;68.10;99702.22;5054963;28;45529;-68
2022/03/31 01:18:45;;;;;;;;;14.00;11.00;;;;;23.05;68.36;99695.97;5052107;28;45551;-68
2022/03/31 01:21:11;;;;;;;;;23.00;14.00;;;;;23.06;68.13;99702.22;5053656;28;45346;-68
2022/03/31 01:23:37;;;;;;;;;13.67;8.67;;;;;23.04;67.97;99701.47;5034600;28;45901;-68
2022/03/31 01:26:05;;;;;;;;;16.67;11.00;;;;;23.03;67.93;99692.53;5023384;28;46548;-68
2022/03/31 01:28:31;;;;;;;;;12.00;9.67;;;;;23.04;67.85;99690.69;5037735;28;45673;-67
2022/03/31 01:30:56;;;;;;;;;13.33;10.67;;;;;23.03;67.77;99688.97;5051008;28;49363;-68
2022/03/31 01:33:21;;;;;;;;;19.00;9.33;;;;;23.03;67.63;99683.59;5055163;28;45757;-68
2022/03/31 01:35:47;;;;;;;;;19.00;11.67;;;;;23.02;67.57;99680.03;5048045;28;58911;-67
2022/03/31 01:38:13;;;;;;;;;18.67;9.33;;;;;23.02;67.85;99680.03;5055142;28;54035;-68
2022/03/31 01:40:38;;;;;;;;;19.67;13.33;;;;;23.01;67.88;99678.28;5055751;28;46387;-68
2022/03/31 01:43:04;;;;;;;;;17.67;12.33;;;;;23.00;67.87;99677.41;5055800;28;45948;-68
2022/03/31 01:45:29;;;;;;;;;18.67;12.00;;;;;22.99;67.54;99678.38;5035203;28;45912;-68
2022/03/31 01:47:55;;;;;;;;;14.33;9.67;;;;;22.99;67.43;99675.66;5048903;28;48723;-68
2022/03/31 01:50:20;;;;;;;;;17.67;10.33;;;;;22.99;67.62;99666.72;5046573;28;45420;-68
2022/03/31 01:52:46;;;;;;;;;15.67;11.00;;;;;22.98;67.73;99667.69;5046442;28;47451;-68
2022/03/31 01:55:11;;;;;;;;;20.00;12.00;;;;;22.98;67.74;99659.63;5034490;28;45391;-68
2022/03/31 01:57:36;;;;;;;;;21.33;12.67;;;;;22.94;67.86;99648.16;5029119;28;53966;-68
2022/03/31 02:00:05;;;;;;;;;20.33;14.00;;;;;22.95;67.58;99652.56;5029098;28;51437;-68
2022/03/31 02:02:30;;;;;;;;;15.67;11.00;;;;;22.95;67.41;99655.25;5051972;28;47797;-68
2022/03/31 02:04:56;;;;;;;;;12.67;11.00;;;;;22.95;67.49;99652.56;5053417;28;60096;-67
2022/03/31 02:07:21;;;;;;;;;19.33;14.33;;;;;22.89;67.42;99641.31;5037909;28;45477;-67
2022/03/31 02:09:46;;;;;;;;;25.00;14.33;;;;;22.94;67.41;99653.53;5034278;28;53792;-67
2022/03/31 02:12:12;;;;;;;;;14.33;12.00;;;;;22.95;67.26;99649.88;5046340;28;58687;-67
2022/03/31 02:14:37;;;;;;;;;17.00;14.67;;;;;22.94;67.12;99650.84;5050723;28;45276;-67
2022/03/31 02:17:06;;;;;;;;;16.33;9.67;;;;;22.92;67.17;99641.13;5055121;28;45491;-67
2022/03/31 02:19:32;;;;;;;;;19.33;12.33;;;;;22.92;67.39;99650.06;5050679;28;45323;-67
2022/03/31 02:21:57;;;;;;;;;21.00;12.00;;;;;22.94;67.22;99652.66;5052330;28;46636;-67
2022/03/31 02:24:23;;;;;;;;;15.33;12.00;;;;;22.93;67.07;99654.50;5055556;28;45304;-67
2022/03/31 02:26:48;;;;;;;;;17.00;13.00;;;;;22.93;67.39;99653.63;5052939;28;45249;-68
2022/03/31 02:29:14;;;;;;;;;25.33;13.33;;;;;22.92;67.25;99652.78;5055276;28;45479;-67
2022/03/31 02:31:39;;;;;;;;;21.00;15.67;;;;;22.89;67.42;99636.78;5051691;28;46090;-67
2022/03/31 02:34:05;;;;;;;;;17.33;13.00;;;;;22.91;67.33;99648.34;5039969;28;61520;-67
2022/03/31 02:36:30;;;;;;;;;18.67;13.67;;;;;22.92;67.32;99649.22;5058754;28;45913;-67
2022/03/31 02:38:56;;;;;;;;;16.33;11.33;;;;;22.90;67.15;99641.19;5054942;28;45495;-67
2022/03/31 02:41:21;;;;;;;;;22.67;15.33;;;;;22.90;67.01;99646.59;5055069;28;60643;-67
2022/03/31 02:43:47;;;;;;;;;18.00;12.00;;;;;22.89;67.18;99650.25;5035089;28;45606;-67
2022/03/31 02:46:12;;;;;;;;;24.00;14.67;;;;;22.89;67.07;99652.94;5037568;28;45443;-67
2022/03/31 02:48:37;;;;;;;;;21.67;13.00;;;;;22.89;67.03;99642.16;5056196;28;49762;-67
2022/03/31 02:51:03;;;;;;;;;23.00;11.00;;;;;22.90;67.04;99651.09;5029464;28;46459;-67
2022/03/31 02:56:12;;;;;;;;;18.67;13.67;;;;;22.88;66.75;99644.97;5050582;28;45324;-67
2022/03/31 02:58:37;;;;;;;;;20.00;13.33;;;;;22.89;66.84;99652.06;5057660;28;56215;-67
2022/03/31 03:01:03;;;;;;;;;25.00;14.00;;;;;22.88;66.85;99643.13;5054589;28;46344;-67
2022/03/31 03:03:29;;;;;;;;;19.67;15.33;;;;;22.90;66.90;99641.19;5036483;28;58605;-67
2022/03/31 03:05:55;;;;;;;;;19.67;13.00;;;;;22.92;66.61;99638.44;5036442;28;45547;-67
2022/03/31 03:08:20;;;;;;;;;23.67;17.00;;;;;22.93;67.01;99640.16;5058063;28;45397;-67
2022/03/31 03:10:46;;;;;;;;;23.00;13.00;;;;;22.94;66.69;99641.91;5052611;28;46367;-67
2022/03/31 03:13:12;;;;;;;;;22.00;15.00;;;;;22.94;66.80;99632.00;5058185;28;45390;-67
2022/03/31 03:15:38;;;;;;;;;22.00;14.33;;;;;22.95;66.88;99636.41;5055804;28;45513;-67
2022/03/31 03:18:03;;;;;;;;;23.00;15.33;;;;;22.95;66.63;99633.72;5057802;28;45671;-67
2022/03/31 03:20:29;;;;;;;;;19.67;15.33;;;;;22.97;67.01;99622.88;5058250;28;45577;-67
2022/03/31 03:22:54;;;;;;;;;20.67;15.33;;;;;22.96;66.71;99626.53;5056898;28;61546;-67
2022/03/31 03:25:20;;;;;;;;;21.67;15.33;;;;;22.94;66.64;99609.59;5050316;28;45478;-67
2022/03/31 03:27:47;;;;;;;;;20.33;14.33;;;;;22.98;66.39;99620.09;5057993;28;45222;-67
2022/03/31 03:30:12;;;;;;;;;15.67;13.67;;;;;22.96;66.09;99615.78;5056172;28;46960;-67
2022/03/31 03:32:38;;;;;;;;;18.33;16.33;;;;;22.96;66.55;99610.41;5057812;28;45512;-67
2022/03/31 03:35:08;;;;;;;;;18.67;14.67;;;;;22.99;66.20;99624.50;5028216;28;45439;-67
2022/03/31 03:37:33;;;;;;;;;22.00;14.00;;;;;22.98;65.79;99620.09;5055133;28;47117;-67
2022/03/31 03:40:02;;;;;;;;;19.00;12.33;;;;;22.97;65.94;99612.97;5057804;28;45332;-67
2022/03/31 03:42:28;;;;;;;;;26.00;16.67;;;;;22.98;66.14;99606.63;5051493;28;45515;-67
2022/03/31 03:44:54;;;;;;;;;25.67;15.67;;;;;22.98;66.06;99617.41;5050306;28;45504;-67
2022/03/31 03:47:19;;;;;;;;;22.67;14.67;;;;;22.98;66.08;99611.16;5058137;28;45352;-67
2022/03/31 03:49:45;;;;;;;;;21.00;14.67;;;;;22.96;65.93;99603.19;5052794;28;61126;-67
2022/03/31 03:52:10;;;;;;;;;27.00;13.67;;;;;22.98;65.78;99608.47;5054040;28;45766;-67
2022/03/31 03:54:36;;;;;;;;;17.67;13.67;;;;;22.98;65.59;99611.16;5050299;28;53406;-67
2022/03/31 03:57:01;;;;;;;;;20.00;11.00;;;;;22.97;65.97;99609.44;5052021;28;45590;-67
2022/03/31 03:59:27;;;;;;;;;21.67;12.67;;;;;22.97;65.95;99612.13;5057664;28;46274;-67
2022/03/31 04:01:52;;;;;;;;;16.33;12.67;;;;;22.97;65.74;99614.81;5057160;28;45358;-67
2022/03/31 04:04:17;;;;;;;;;19.00;15.33;;;;;22.96;65.77;99611.25;5053808;28;45895;-67
2022/03/31 04:06:43;;;;;;;;;14.67;14.33;;;;;22.96;65.59;99616.63;5053362;28;45256;-67
2022/03/31 04:09:08;;;;;;;;;15.33;11.67;;;;;22.93;65.83;99614.13;5052045;28;60208;-67
2022/03/31 04:11:34;;;;;;;;;22.33;14.33;;;;;22.95;65.69;99612.19;5057640;28;45506;-67
2022/03/31 04:13:59;;;;;;;;;23.00;12.33;;;;;22.96;65.76;99624.72;5051685;28;52845;-67
2022/03/31 04:16:24;;;;;;;;;18.67;15.67;;;;;22.96;65.44;99621.16;5055282;28;53140;-67
2022/03/31 04:18:50;;;;;;;;;17.00;14.67;;;;;22.94;65.50;99615.84;5054003;28;45855;-67
2022/03/31 04:21:15;;;;;;;;;20.00;13.33;;;;;22.94;65.67;99617.66;5038128;28;60440;-67
2022/03/31 04:23:41;;;;;;;;;21.67;15.00;;;;;22.94;65.58;99623.91;5034044;28;45175;-67
2022/03/31 04:26:06;;;;;;;;;22.00;14.00;;;;;22.95;65.50;99630.16;5057299;28;53635;-67
2022/03/31 04:28:32;;;;;;;;;22.67;14.67;;;;;22.95;65.48;99614.00;5038314;28;63344;-67
2022/03/31 04:30:58;;;;;;;;;25.33;14.67;;;;;22.91;65.49;99610.66;5055102;28;45438;-67
2022/03/31 04:33:23;;;;;;;;;15.67;13.67;;;;;22.95;65.34;99622.09;5057196;28;45422;-68
2022/03/31 04:35:48;;;;;;;;;20.00;13.67;;;;;22.93;65.34;99618.63;5052691;28;50627;-67
2022/03/31 04:38:14;;;;;;;;;17.67;14.67;;;;;22.93;65.31;99619.50;5049508;28;63822;-67
2022/03/31 04:40:39;;;;;;;;;20.67;14.33;;;;;22.93;65.08;99615.94;5056195;28;56579;-68
2022/03/31 04:43:05;;;;;;;;;22.67;16.33;;;;;22.92;64.91;99620.47;5055740;28;55100;-67
2022/03/31 04:45:30;;;;;;;;;17.00;16.00;;;;;22.92;65.17;99619.59;5035938;28;45359;-68
2022/03/31 04:47:55;;;;;;;;;17.67;13.00;;;;;22.91;65.15;99621.44;5053095;28;62755;-68
2022/03/31 04:50:21;;;;;;;;;25.00;15.00;;;;;22.89;64.89;99612.56;5055860;28;45347;-68
2022/03/31 04:52:46;;;;;;;;;21.33;14.00;;;;;22.89;65.08;99614.38;5034066;28;45986;-68
2022/03/31 04:55:12;;;;;;;;;24.00;12.67;;;;;22.88;64.97;99616.22;5038152;28;52117;-68
2022/03/31 04:57:37;;;;;;;;;22.00;17.33;;;;;22.87;65.11;99605.50;5050452;28;46213;-67
2022/03/31 05:00:03;;;;;;;;;18.33;13.67;;;;;22.87;65.13;99614.44;5038476;28;45471;-67
2022/03/31 05:02:29;;;;;;;;;21.67;14.00;;;;;22.87;64.88;99613.59;5051359;28;45288;-68
2022/03/31 05:04:54;;;;;;;;;19.67;14.67;;;;;22.87;65.11;99606.38;5049852;28;45201;-68
2022/03/31 05:07:20;;;;;;;;;23.33;16.00;;;;;22.86;64.85;99614.56;5031848;28;46048;-68
2022/03/31 05:09:45;;;;;;;;;18.00;13.00;;;;;22.85;65.07;99611.00;5022224;28;54552;-69
2022/03/31 05:12:12;;;;;;;;;18.00;15.00;;;;;22.86;64.86;99617.25;5056485;28;45759;-68
2022/03/31 05:14:38;;;;;;;;;22.67;17.33;;;;;22.83;64.93;99614.72;5034913;28;45555;-68
2022/03/31 05:17:04;;;;;;;;;26.67;14.00;;;;;22.83;64.99;99618.28;5047141;28;46152;-68
2022/03/31 05:19:29;;;;;;;;;30.33;17.00;;;;;22.83;64.93;99620.97;5048766;28;45452;-69
2022/03/31 05:21:54;;;;;;;;;21.33;17.00;;;;;22.80;64.82;99617.56;5055882;28;52586;-69
2022/03/31 05:24:20;;;;;;;;;22.67;15.33;;;;;22.82;64.70;99635.38;5055744;28;45484;-69
2022/03/31 05:26:45;;;;;;;;;18.33;15.33;;;;;22.81;64.67;99636.34;5053359;28;58260;-68
2022/03/31 05:29:13;;;;;;;;;20.33;15.67;;;;;22.81;64.83;99633.66;5021199;28;45778;-69
2022/03/31 05:31:39;;;;;;;;;18.00;13.33;;;;;22.80;64.61;99631.94;5054064;28;45302;-68
2022/03/31 05:34:04;;;;;;;;;26.00;14.33;;;;;22.80;64.94;99642.69;5050548;28;45411;-69
2022/03/31 05:36:30;;;;;;;;;22.33;17.00;;;;;22.81;64.61;99641.72;5055166;28;46348;-67
2022/03/31 05:38:56;;;;;;;;;20.33;16.33;;;;;22.81;64.80;99641.72;5054203;28;45447;-68
2022/03/31 05:41:22;;;;;;;;;27.67;18.33;;;;;22.81;65.03;99641.72;5049540;28;45368;-67
2022/03/31 05:43:47;;;;;;;;;21.67;17.67;;;;;22.83;64.37;99644.31;5036859;28;45284;-68
2022/03/31 05:46:13;;;;;;;;;26.67;18.33;;;;;22.84;64.46;99649.59;5031636;28;46581;-68
2022/03/31 05:48:38;;;;;;;;;24.67;17.67;;;;;22.83;64.44;99639.81;5036920;28;59752;-67
2022/03/31 05:51:04;;;;;;;;;38.33;19.33;;;;;22.88;64.39;99645.81;5034174;28;45446;-68
2022/03/31 05:53:29;;;;;;;;;27.33;16.67;;;;;22.90;64.22;99646.59;5052509;28;45762;-65
2022/03/31 05:55:55;;;;;;;;;53.25;37.75;;;;;22.87;63.56;99640.50;5054624;28;61150;-66
2022/03/31 05:58:20;;;;;;;;;55.25;42.75;;;;;22.55;60.07;99654.00;5045680;28;45509;-67
2022/03/31 06:00:46;;;;;;;;;60.50;45.00;;;;;22.07;58.06;99649.53;5046099;28;45494;-66
2022/03/31 06:03:11;;;;;;;;;60.00;45.50;;;;;21.58;55.94;99654.88;5056067;28;45582;-63
2022/03/31 06:05:36;;;;;;;;;59.50;44.25;;;;;21.08;55.59;99658.31;5045896;28;60940;-64
2022/03/31 06:08:02;;;;;;;;;53.50;42.75;;;;;20.44;49.80;99672.22;5045053;28;58441;-64
2022/03/31 06:10:27;;;;;;;;;56.00;43.75;;;;;19.56;51.14;99680.72;5057654;28;45452;-65
2022/03/31 06:12:53;;;;;;;;;57.75;45.50;;;;;18.78;51.17;99684.91;5037389;28;53693;-64
2022/03/31 06:15:19;;;;;;;;;60.75;45.00;;;;;18.39;54.07;99671.31;5054613;28;46223;-64
2022/03/31 06:17:45;;;;;;;;;62.25;49.25;;;;;18.28;54.97;99684.22;5049534;28;45493;-63
2022/03/31 06:20:11;;;;;;;;;60.50;47.00;;;;;18.08;54.23;99678.78;5049383;28;45533;-64
2022/03/31 06:22:37;;;;;;;;;59.00;45.50;;;;;17.78;54.79;99685.19;5052866;28;45939;-64
2022/03/31 06:25:03;;;;;;;;;57.25;42.75;;;;;17.63;56.60;99675.06;5049086;28;47681;-65
2022/03/31 06:27:28;;;;;;;;;62.00;44.75;;;;;17.61;57.21;99679.56;5053851;28;45581;-64
2022/03/31 06:29:54;;;;;;;;;59.50;48.25;;;;;17.67;56.90;99681.16;5050451;28;45716;-65
2022/03/31 06:32:19;;;;;;;;;45.50;38.25;;;;;17.69;62.39;99682.00;5057440;28;53114;-67
2022/03/31 06:34:45;;;;;;;;;44.00;34.25;;;;;17.91;64.08;99679.44;5043394;28;46750;-66
2022/03/31 06:37:10;;;;;;;;;47.25;35.25;;;;;18.22;64.65;99671.97;5055399;28;45475;-66
2022/03/31 06:39:35;;;;;;;;;43.75;34.75;;;;;18.54;65.13;99669.84;5057139;28;46058;-68
2022/03/31 06:42:09;;;;;;;;;39.25;33.25;;;;;18.83;65.12;99666.88;5042383;28;50763;-66
2022/03/31 06:44:35;;;;;;;;;41.75;32.75;;;;;19.11;65.55;99671.03;5033978;28;47903;-66
2022/03/31 06:47:00;;;;;;;;;46.75;32.00;;;;;19.35;65.30;99661.97;5031178;28;56551;-66
2022/03/31 06:49:25;;;;;;;;;37.50;31.00;;;;;19.56;64.96;99664.66;5051635;28;45600;-67
2022/03/31 06:51:51;;;;;;;;;38.00;31.25;;;;;19.79;64.96;99669.84;5052573;28;45557;-67
2022/03/31 06:54:18;;;;;;;;;38.25;31.50;;;;;19.96;64.80;99671.75;5055794;28;46171;-65
2022/03/31 06:56:44;;;;;;;;;35.67;31.33;;;;;20.17;64.67;99675.25;5053000;28;45266;-66
2022/03/31 06:59:09;;;;;;;;;32.00;27.33;;;;;20.34;65.20;99677.13;5058921;28;45118;-66
2022/03/31 07:01:35;;;;;;;;;34.00;25.00;;;;;20.48;64.49;99669.34;5058322;28;45342;-66
2022/03/31 07:04:00;;;;;;;;;31.33;27.00;;;;;20.63;65.12;99673.97;5056884;28;62347;-66
2022/03/31 07:06:25;;;;;;;;;32.67;28.00;;;;;20.78;64.43;99669.66;5058347;28;45245;-67
2022/03/31 07:08:51;;;;;;;;;32.67;22.33;;;;;20.91;64.33;99664.53;5055193;28;56799;-68
2022/03/31 07:11:16;;;;;;;;;30.67;23.67;;;;;21.03;64.78;99671.09;5055848;28;47779;-67
2022/03/31 07:13:43;;;;;;;;;26.00;22.33;;;;;21.13;64.59;99678.63;5057246;28;45806;-66
2022/03/31 07:16:09;;;;;;;;;31.67;25.00;;;;;21.23;64.00;99673.66;5053999;28;45592;-66
2022/03/31 07:18:34;;;;;;;;;34.67;23.33;;;;;21.33;64.11;99680.31;5056558;28;45612;-66
2022/03/31 07:20:59;;;;;;;;;26.67;22.00;;;;;21.41;63.93;99675.44;5056902;28;45588;-67
2022/03/31 07:23:25;;;;;;;;;31.67;24.00;;;;;21.50;63.83;99676.75;5057965;28;57449;-67
2022/03/31 07:25:55;;;;;;;;;27.33;20.67;;;;;21.57;63.69;99674.59;5058072;28;45404;-67
2022/03/31 07:28:21;;;;;;;;;29.00;22.67;;;;;21.64;64.17;99666.16;5028847;28;45534;-66
2022/03/31 07:30:47;;;;;;;;;32.67;24.33;;;;;21.70;63.91;99673.03;5054807;28;45775;-67
2022/03/31 07:33:12;;;;;;;;;25.00;20.67;;;;;21.78;63.78;99673.47;5057490;28;46459;-67
2022/03/31 07:35:38;;;;;;;;;33.33;23.67;;;;;21.82;63.32;99676.88;5056442;28;55748;-67
2022/03/31 07:38:04;;;;;;;;;24.00;21.00;;;;;21.86;63.89;99679.31;5042619;28;45447;-66
2022/03/31 07:40:30;;;;;;;;;19.67;18.00;;;;;21.90;63.86;99680.88;5038784;28;45250;-69
2022/03/31 07:42:55;;;;;;;;;29.00;22.00;;;;;21.96;63.33;99683.22;5181996;22;46782;-68
2022/03/31 07:45:21;;;;;;;;;21.33;18.00;;;;;22.01;63.51;99688.38;5071300;28;45533;-68
2022/03/31 07:47:46;;;;;;;;;22.33;15.67;;;;;22.06;63.03;99691.69;5078374;27;45484;-69
2022/03/31 07:50:13;;;;;;;;;24.00;20.33;;;;;22.09;63.55;99698.69;5071174;28;55857;-68
2022/03/31 07:52:39;;;;;;;;;26.00;20.00;;;;;22.13;63.53;99698.47;5077589;28;46539;-68
2022/03/31 07:55:06;;;;;;;;;27.67;22.33;;;;;22.15;62.99;99699.25;5078399;27;45351;-68
2022/03/31 07:57:32;;;;;;;;;31.00;21.33;;;;;22.19;62.81;99700.81;5071907;28;45487;-69
2022/03/31 07:59:57;;;;;;;;;22.33;20.67;;;;;22.21;63.50;99707.00;5078386;28;46017;-68
2022/03/31 08:02:25;;;;;;;;;18.00;17.33;;;;;22.22;63.10;99708.72;5076753;28;45796;-68
2022/03/31 08:04:51;;;;;;;;;30.33;20.00;;;;;22.24;63.10;99705.94;5074184;28;45728;-69
2022/03/31 08:07:16;;;;;;;;;22.00;17.67;;;;;22.27;63.07;99716.56;5070599;27;45632;-68
2022/03/31 08:09:42;;;;;;;;;26.00;19.33;;;;;22.30;62.97;99726.25;5077932;27;45267;-68
2022/03/31 08:12:07;;;;;;;;;18.00;16.00;;;;;22.31;62.99;99728.84;5073296;27;46420;-67
2022/03/31 08:14:33;;;;;;;;;17.00;14.00;;;;;22.33;62.83;99736.88;5074756;28;45577;-68
2022/03/31 08:16:58;;;;;;;;;15.00;14.33;;;;;22.31;62.93;99734.22;5069206;27;45486;-68
2022/03/31 08:19:23;;;;;;;;;18.67;14.00;;;;;22.36;62.62;99739.38;5074894;28;45727;-68
2022/03/31 08:21:49;;;;;;;;;16.00;11.67;;;;;22.38;62.75;99750.94;5077722;28;46649;-68
2022/03/31 08:24:15;;;;;;;;;13.00;11.67;;;;;22.39;62.95;99750.84;5053689;28;45301;-68
2022/03/31 08:26:41;;;;;;;;;12.00;9.67;;;;;22.40;63.02;99759.78;5074546;27;45391;-68
2022/03/31 08:29:07;;;;;;;;;15.67;11.33;;;;;22.42;62.84;99755.16;5074170;27;45514;-69
2022/03/31 08:31:34;;;;;;;;;18.67;11.00;;;;;22.42;62.61;99761.41;5077000;27;46709;-68
2022/03/31 08:34:00;;;;;;;;;12.33;9.67;;;;;22.43;62.23;99768.56;5075435;27;45492;-68
2022/03/31 08:36:26;;;;;;;;;14.00;8.67;;;;;22.42;62.38;99772.16;5073060;28;45610;-68
2022/03/31 08:38:51;;;;;;;;;16.00;9.33;;;;;22.45;62.56;99784.59;5062743;28;45481;-69
2022/03/31 08:41:17;;;;;;;;;16.33;9.67;;;;;22.45;62.66;99782.78;5070196;28;46362;-69
2022/03/31 08:43:42;;;;;;;;;14.00;9.33;;;;;22.46;62.35;99792.56;5053901;28;57641;-69
2022/03/31 08:46:09;;;;;;;;;12.00;7.67;;;;;22.48;61.94;99795.19;5072337;28;45352;-68
2022/03/31 08:48:34;;;;;;;;;14.67;8.33;;;;;22.48;62.33;99801.44;5076413;28;46126;-68
2022/03/31 08:51:00;;;;;;;;;9.33;8.00;;;;;22.49;62.13;99797.81;5069329;28;61851;-68
2022/03/31 08:53:25;;;;;;;;;11.00;8.00;;;;;22.50;62.22;99809.44;5073964;27;45380;-68
2022/03/31 08:55:50;;;;;;;;;18.33;8.00;;;;;22.49;62.14;99815.75;5074656;28;45614;-68
2022/03/31 08:58:16;;;;;;;;;11.67;6.00;;;;;22.51;61.79;99823.75;5073150;28;47134;-68
2022/03/31 09:00:41;;;;;;;;;14.00;7.33;;;;;22.51;61.92;99824.59;5073396;27;47609;-69
2022/03/31 09:03:07;;;;;;;;;9.67;5.67;;;;;22.52;62.02;99825.47;5077165;27;45490;-68
2022/03/31 09:05:36;;;;;;;;;13.33;9.00;;;;;22.53;62.21;99832.59;5075715;28;45462;-69
2022/03/31 09:08:02;;;;;;;;;10.67;7.00;;;;;22.54;61.51;99831.66;5077370;27;45323;-69
2022/03/31 09:10:42;;;;;;;;;10.00;6.67;;;;;22.53;61.90;99840.66;5076556;27;46787;-69
2022/03/31 09:13:25;;;;;;;;;10.00;7.00;;;;;22.55;62.10;99855.78;5072586;27;45340;-69
2022/03/31 09:16:04;;;;;;;;;12.00;9.33;;;;;22.54;61.65;99850.50;5076677;27;45401;-68
2022/03/31 09:18:30;;;;;;;;;9.00;6.00;;;;;22.56;61.60;99862.03;5076899;28;45405;-68
2022/03/31 09:20:57;;;;;;;;;9.33;6.33;;;;;22.58;62.02;99865.50;5075903;27;45563;-68
2022/03/31 09:23:32;;;;;;;;;13.00;7.00;;;;;22.58;61.93;99862.81;5072313;28;45627;-68
2022/03/31 09:26:07;;;;;;;;;7.33;5.00;;;;;22.59;61.95;99868.13;5073905;28;45184;-69
2022/03/31 09:28:33;;;;;;;;;12.00;7.33;;;;;22.60;61.59;99882.44;5069717;28;45707;-68
2022/03/31 09:30:58;;;;;;;;;9.00;6.00;;;;;22.60;61.71;99877.94;5074060;27;45667;-69
2022/03/31 09:33:50;;;;;;;;;9.67;5.00;;;;;22.61;61.67;99885.03;5073387;28;61276;-69
2022/03/31 09:36:19;;;;;;;;;12.33;5.67;;;;;22.62;61.79;99884.09;5072042;27;45560;-69
2022/03/31 09:38:52;;;;;;;;;11.33;8.67;;;;;22.63;61.65;99891.19;5076824;27;45279;-69
2022/03/31 09:41:32;;;;;;;;;10.00;6.00;;;;;22.63;61.46;99895.72;5075718;28;46682;-68
2022/03/31 09:43:59;;;;;;;;;11.00;6.00;;;;;22.64;61.27;99897.47;5073307;28;45636;-68
2022/03/31 09:46:30;;;;;;;;;5.00;4.67;;;;;22.63;61.24;99893.91;5076813;27;45310;-68
2022/03/31 09:48:56;;;;;;;;;10.00;6.00;;;;;22.65;61.11;99894.69;5075313;27;45515;-68
2022/03/31 09:51:22;;;;;;;;;9.33;7.00;;;;;;;;5072983;28;46999;-67
2022/03/31 09:53:48;;;;;;;;;9.33;5.00;;;;;22.67;60.99;99905.38;5075971;28;45240;-68
2022/03/31 09:56:17;;;;;;;;;11.33;5.00;;;;;22.69;61.03;99900.75;5076682;27;45583;-68
2022/03/31 09:58:43;;;;;;;;;7.33;5.67;;;;;22.68;61.00;99889.13;5064390;28;45641;-68
2022/03/31 10:01:08;;;;;;;;;7.33;5.00;;;;;22.71;60.81;99893.50;5054889;28;45998;-68
2022/03/31 10:03:34;;;;;;;;;10.67;5.00;;;;;22.71;60.73;99894.38;5063691;28;58250;-68
2022/03/31 10:06:00;;;;;;;;;7.33;6.00;;;;;22.73;60.74;99896.97;5069500;28;46484;-67
2022/03/31 10:08:26;;;;;;;;;13.00;5.67;;;;;22.74;61.01;99902.28;5069191;28;45463;-68
2022/03/31 10:10:51;;;;;;;;;11.00;5.67;;;;;22.74;60.71;99891.53;5068787;27;46288;-67
2022/03/31 10:13:24;;;;;;;;;5.33;5.33;;;;;22.75;60.70;99903.16;5073255;27;59625;-67
2022/03/31 10:15:58;;;;;;;;;6.00;4.67;;;;;22.74;60.47;99909.47;5073638;28;45404;-67
2022/03/31 10:18:24;;;;;;;;;10.33;6.00;;;;;22.75;60.65;99895.94;5057931;28;45498;-68
2022/03/31 10:20:59;;;;;;;;;6.00;4.67;;;;;22.78;60.94;99902.97;5068030;28;45643;-67
2022/03/31 10:26:29;;;;;;;;;14.67;5.67;;;;;22.80;60.58;99902.88;5085555;27;45492;-67
2022/03/31 10:28:58;;;;;;;;;10.67;5.33;;;;;22.81;60.65;99893.88;5070671;28;45543;-67
2022/03/31 10:31:37;;;;;;;;;8.00;3.33;;;;;22.82;60.45;99895.59;5075446;27;46478;-67
2022/03/31 10:34:02;;;;;;;;;9.33;6.67;;;;;22.82;60.24;99892.91;5074213;28;45291;-66
2022/03/31 10:36:55;;;;;;;;;11.00;6.00;;;;;22.83;60.24;99895.50;5073013;28;45418;-67
2022/03/31 10:39:21;;;;;;;;;8.00;3.00;;;;;22.83;60.06;99891.97;5070632;28;45578;-66
2022/03/31 10:41:47;;;;;;;;;10.00;4.00;;;;;22.77;60.25;99893.16;5074268;28;45385;-67
2022/03/31 10:44:12;;;;;;;;;6.67;5.33;;;;;22.84;60.16;99891.88;5071406;27;45546;-67
2022/03/31 10:46:41;;;;;;;;;7.67;4.00;;;;;22.84;60.10;99901.75;5072874;28;45264;-67
2022/03/31 10:49:19;;;;;;;;;6.00;3.00;;;;;22.84;60.14;99894.56;5077278;28;45291;-68
2022/03/31 10:51:46;;;;;;;;;7.00;3.00;;;;;22.86;59.67;99891.81;5073956;28;46801;-67
2022/03/31 10:54:23;;;;;;;;;11.67;4.00;;;;;22.87;60.05;99893.53;5076993;28;45483;-67
2022/03/31 10:56:48;;;;;;;;;4.00;2.33;;;;;22.87;59.79;99888.16;5065254;28;45636;-67
2022/03/31 10:59:15;;;;;;;;;13.33;5.00;;;;;22.87;59.93;99890.84;5076647;28;52742;-67
2022/03/31 11:01:41;;;;;;;;;7.67;3.33;;;;;22.87;59.57;99885.47;5077565;28;45741;-67
2022/03/31 11:04:10;;;;;;;;;5.67;4.00;;;;;22.87;59.68;99897.09;5075994;27;45397;-66
2022/03/31 11:06:51;;;;;;;;;7.67;5.00;;;;;22.85;59.74;99890.94;5074233;27;45615;-67
2022/03/31 11:09:27;;;;;;;;;8.33;3.33;;;;;22.85;59.96;99896.31;5065950;28;45569;-68
2022/03/31 11:11:52;;;;;;;;;11.33;4.67;;;;;22.87;59.34;99888.16;5069585;28;45786;-68
2022/03/31 11:14:18;;;;;;;;;9.67;4.67;;;;;22.85;59.68;99885.56;5076719;28;45385;-69
2022/03/31 11:16:44;;;;;;;;;8.67;4.00;;;;;22.86;59.40;99881.91;5077081;27;45418;-68
2022/03/31 11:19:09;;;;;;;;;9.33;4.00;;;;;22.87;59.38;99891.72;5056194;28;45570;-67
2022/03/31 11:21:35;;;;;;;;;5.00;4.67;;;;;22.87;59.07;99889.03;5074234;28;48020;-69
2022/03/31 11:24:01;;;;;;;;;6.67;2.00;;;;;22.86;59.63;99887.28;5073880;28;45411;-68